createdAt,value
2022-09-07T00:00:05.978Z,2.42
2022-09-07T00:02:32.801Z,2.47
2022-09-07T00:04:59.975Z,3.00
2022-09-07T00:07:26.795Z,2.60
2022-09-07T00:09:54.084Z,2.97
2022-09-07T00:12:20.977Z,2.45
2022-09-07T00:14:48.004Z,3.00
2022-09-07T00:17:14.909Z,2.75
2022-09-07T00:19:41.777Z,2.67
2022-09-07T00:22:08.539Z,3.70
2022-09-07T00:24:35.742Z,2.60
2022-09-07T00:27:02.500Z,3.25
2022-09-07T00:29:29.288Z,2.90
2022-09-07T00:31:56.501Z,3.35
2022-09-07T00:34:23.788Z,3.13
2022-09-07T00:36:50.587Z,3.00
2022-09-07T00:39:17.787Z,3.60
2022-09-07T00:41:45.032Z,3.72
2022-09-07T00:44:44.204Z,3.42
2022-09-07T00:47:23.178Z,3.80
2022-09-07T00:49:55.084Z,3.97
2022-09-07T00:52:23.423Z,3.85
2022-09-07T00:54:55.404Z,3.72
2022-09-07T00:57:22.965Z,4.28
2022-09-07T00:59:52.834Z,3.38
2022-09-07T01:02:20.252Z,3.50
2022-09-07T01:04:51.110Z,4.03
2022-09-07T01:07:18.607Z,3.55
2022-09-07T01:09:47.252Z,3.53
2022-09-07T01:12:14.648Z,3.15
2022-09-07T01:14:45.318Z,2.95
2022-09-07T01:17:39.307Z,2.75
2022-09-07T01:20:06.590Z,2.97
2022-09-07T01:22:52.327Z,2.95
2022-09-07T01:26:04.196Z,2.70
2022-09-07T01:28:35.305Z,2.50
2022-09-07T01:31:39.082Z,2.35
2022-09-07T01:34:11.061Z,2.35
2022-09-07T01:36:49.808Z,2.47
2022-09-07T01:39:19.768Z,2.28
2022-09-07T01:41:58.436Z,2.55
2022-09-07T01:44:34.817Z,2.30
2022-09-07T01:47:27.090Z,1.88
2022-09-07T01:50:17.340Z,2.60
2022-09-07T01:53:17.380Z,2.08
2022-09-07T01:55:56.269Z,2.17
2022-09-07T01:58:51.695Z,2.10
2022-09-07T02:01:28.826Z,2.15
2022-09-07T02:04:07.492Z,2.30
2022-09-07T02:06:50.983Z,2.13
2022-09-07T02:09:32.664Z,1.98
2022-09-07T02:12:03.431Z,2.05
2022-09-07T02:14:42.890Z,2.20
2022-09-07T02:17:22.406Z,2.10
2022-09-07T02:19:54.133Z,1.90
2022-09-07T02:22:28.458Z,2.00
2022-09-07T02:24:59.876Z,1.77
2022-09-07T02:27:41.483Z,2.10
2022-09-07T02:30:08.897Z,2.20
2022-09-07T02:32:35.804Z,2.22
2022-09-07T02:35:03.077Z,2.28
2022-09-07T02:37:30.361Z,2.30
2022-09-07T02:39:57.916Z,2.10
2022-09-07T02:42:25.214Z,2.42
2022-09-07T02:44:52.029Z,2.25
2022-09-07T02:47:33.323Z,2.70
2022-09-07T02:50:30.631Z,2.53
2022-09-07T02:53:22.297Z,2.72
2022-09-07T02:56:29.834Z,2.50
2022-09-07T02:59:07.387Z,2.67
2022-09-07T03:01:57.028Z,3.00
2022-09-07T03:04:57.383Z,2.88
2022-09-07T03:07:42.189Z,2.80
2022-09-07T03:10:11.488Z,2.97
2022-09-07T03:12:47.584Z,2.63
2022-09-07T03:15:25.815Z,2.85
2022-09-07T03:17:53.530Z,2.92
2022-09-07T03:20:21.650Z,2.67
2022-09-07T03:22:50.002Z,2.50
2022-09-07T03:25:17.474Z,2.75
2022-09-07T03:27:44.707Z,2.88
2022-09-07T03:30:12.857Z,3.03
2022-09-07T03:32:40.217Z,3.20
2022-09-07T03:35:08.271Z,2.70
2022-09-07T03:37:38.554Z,3.08
2022-09-07T03:40:07.924Z,2.97
2022-09-07T03:42:35.339Z,2.85
2022-09-07T03:45:02.541Z,3.10
2022-09-07T03:47:29.342Z,2.85
2022-09-07T03:49:56.184Z,3.30
2022-09-07T03:52:23.398Z,3.15
2022-09-07T03:54:50.153Z,3.10
2022-09-07T03:57:17.041Z,3.00
2022-09-07T03:59:44.309Z,2.70
2022-09-07T04:02:11.109Z,3.15
2022-09-07T04:04:37.915Z,3.53
2022-09-07T04:07:04.997Z,3.30
2022-09-07T04:09:31.797Z,3.60
2022-09-07T04:11:58.585Z,3.20
2022-09-07T04:14:25.808Z,3.63
2022-09-07T04:16:52.698Z,3.83
2022-09-07T04:19:19.514Z,3.30
2022-09-07T04:21:47.214Z,3.50
2022-09-07T04:24:15.515Z,3.20
2022-09-07T04:26:43.557Z,4.28
2022-09-07T04:29:11.640Z,3.28
2022-09-07T04:31:39.427Z,3.13
2022-09-07T04:34:07.113Z,3.38
2022-09-07T04:36:34.108Z,3.78
2022-09-07T04:39:03.387Z,3.17
2022-09-07T04:41:31.780Z,3.13
2022-09-07T04:44:01.176Z,3.20
2022-09-07T04:46:31.135Z,16.05
2022-09-07T04:49:00.452Z,3.72
2022-09-07T04:51:29.801Z,3.72
2022-09-07T04:53:58.258Z,3.88
2022-09-07T04:56:25.675Z,3.25
2022-09-07T04:58:52.538Z,3.33
2022-09-07T05:01:22.536Z,3.95
2022-09-07T05:03:50.172Z,3.80
2022-09-07T05:06:18.936Z,4.18
2022-09-07T05:08:49.707Z,3.80
2022-09-07T05:11:17.820Z,3.80
2022-09-07T05:13:45.145Z,3.92
2022-09-07T05:16:14.523Z,3.63
2022-09-07T05:18:41.682Z,4.10
2022-09-07T05:21:14.100Z,3.70
2022-09-07T05:23:41.389Z,4.18
2022-09-07T05:26:09.396Z,4.03
2022-09-07T05:28:36.996Z,4.60
2022-09-07T05:36:37.365Z,3.90
2022-09-07T05:39:06.427Z,4.75
2022-09-07T05:41:33.811Z,4.05
2022-09-07T05:46:47.505Z,3.60
2022-09-07T05:49:14.260Z,4.13
2022-09-07T05:51:41.485Z,3.97
2022-09-07T05:54:08.315Z,4.85
2022-09-07T05:56:36.268Z,4.93
2022-09-07T05:59:03.969Z,5.18
2022-09-07T06:01:31.695Z,5.55
2022-09-07T06:03:58.901Z,5.25
2022-09-07T06:06:26.124Z,5.32
2022-09-07T06:08:54.016Z,4.88
2022-09-07T06:11:25.472Z,5.60
2022-09-07T06:13:53.066Z,5.40
2022-09-07T06:16:20.566Z,5.40
2022-09-07T06:18:49.476Z,4.80
2022-09-07T06:21:19.669Z,5.55
2022-09-07T06:23:47.448Z,5.07
2022-09-07T06:26:16.318Z,5.00
2022-09-07T06:28:47.680Z,5.60
2022-09-07T06:31:21.557Z,5.88
2022-09-07T06:33:49.060Z,5.43
2022-09-07T06:36:21.330Z,5.70
2022-09-07T06:38:49.172Z,7.22
2022-09-07T06:44:08.077Z,6.53
2022-09-07T06:49:23.533Z,6.65
2022-09-07T06:51:50.314Z,7.60
2022-09-07T06:57:09.071Z,7.30
2022-09-07T06:59:37.414Z,7.70
2022-09-07T07:02:10.148Z,7.20
2022-09-07T07:04:40.869Z,7.82
2022-09-07T07:07:12.482Z,6.93
2022-09-07T07:09:39.703Z,7.90
2022-09-07T07:12:06.597Z,7.07
2022-09-07T07:14:34.617Z,6.85
2022-09-07T07:17:03.554Z,7.80
2022-09-07T07:19:30.361Z,7.65
2022-09-07T07:24:44.521Z,8.10
2022-09-07T07:27:11.344Z,7.88
2022-09-07T07:29:38.229Z,8.60
2022-09-07T07:32:05.265Z,7.90
2022-09-07T07:37:17.254Z,7.93
2022-09-07T07:42:31.526Z,9.50
2022-09-07T07:47:50.023Z,8.25
2022-09-07T07:50:33.722Z,8.88
2022-09-07T07:55:47.837Z,8.95
2022-09-07T07:58:14.688Z,8.60
2022-09-07T08:00:54.411Z,8.80
2022-09-07T08:03:23.468Z,10.82
2022-09-07T08:05:50.697Z,11.13
2022-09-07T08:08:17.889Z,11.43
2022-09-07T08:10:46.043Z,12.57
2022-09-07T08:13:13.200Z,12.05
2022-09-07T08:15:44.513Z,11.85
2022-09-07T08:18:12.497Z,11.47
2022-09-07T08:20:40.519Z,10.82
2022-09-07T08:23:08.161Z,10.55
2022-09-07T08:25:35.536Z,12.32
2022-09-07T08:28:02.685Z,12.88
2022-09-07T08:30:29.875Z,13.60
2022-09-07T08:32:57.028Z,11.73
2022-09-07T08:35:24.180Z,12.30
2022-09-07T08:37:50.947Z,12.63
2022-09-07T08:40:19.168Z,12.85
2022-09-07T08:42:46.603Z,12.77
2022-09-07T08:45:20.810Z,12.23
2022-09-07T08:47:52.581Z,12.18
2022-09-07T08:50:23.092Z,11.65
2022-09-07T08:53:16.992Z,12.18
2022-09-07T08:56:09.617Z,13.13
2022-09-07T08:58:51.354Z,12.40
2022-09-07T09:01:36.708Z,12.05
2022-09-07T09:06:11.594Z,12.18
2022-09-07T09:07:21.804Z,11.45
2022-09-07T09:10:05.944Z,10.53
2022-09-07T09:12:57.604Z,10.55
2022-09-07T09:15:30.910Z,10.45
2022-09-07T09:18:04.789Z,11.90
2022-09-07T09:20:45.407Z,11.40
2022-09-07T09:23:17.726Z,11.67
2022-09-07T09:25:54.011Z,10.77
2022-09-07T09:28:21.701Z,10.30
2022-09-07T09:30:49.041Z,10.80
2022-09-07T09:33:21.463Z,11.32
2022-09-07T09:35:50.812Z,10.07
2022-09-07T09:38:32.005Z,9.82
2022-09-07T09:41:13.108Z,9.70
2022-09-07T09:43:56.648Z,10.25
2022-09-07T09:46:31.760Z,9.32
2022-09-07T09:49:04.127Z,9.17
2022-09-07T09:54:40.228Z,9.02
2022-09-07T09:57:07.096Z,9.35
2022-09-07T10:05:30.039Z,9.13
2022-09-07T10:07:57.044Z,9.23
2022-09-07T10:10:25.292Z,8.50
2022-09-07T10:12:54.262Z,9.15
2022-09-07T10:15:41.701Z,8.80
2022-09-07T10:18:19.248Z,8.77
2022-09-07T10:20:46.057Z,9.10
2022-09-07T10:23:22.195Z,8.63
2022-09-07T10:25:49.093Z,7.75
2022-09-07T10:28:22.079Z,6.20
2022-09-07T10:31:17.095Z,7.20
2022-09-07T10:34:25.666Z,5.85
2022-09-07T10:36:59.096Z,6.20
2022-09-07T10:39:30.567Z,7.45
2022-09-07T10:42:09.678Z,6.47
2022-09-07T10:44:58.083Z,7.00
2022-09-07T10:48:00.436Z,5.72
2022-09-07T10:51:13.418Z,4.57
2022-09-07T10:53:43.500Z,5.10
2022-09-07T10:56:25.694Z,4.63
2022-09-07T10:59:01.736Z,4.93
2022-09-07T11:01:51.466Z,4.60
2022-09-07T11:05:10.413Z,4.30
2022-09-07T11:08:07.643Z,4.13
2022-09-07T11:11:01.245Z,4.30
2022-09-07T11:13:40.987Z,4.35
2022-09-07T11:19:38.164Z,3.28
2022-09-07T11:22:42.346Z,3.40
2022-09-07T11:25:34.815Z,3.50
2022-09-07T11:28:16.326Z,3.70
2022-09-07T11:30:49.885Z,3.13
2022-09-07T11:33:24.146Z,3.22
2022-09-07T11:35:58.600Z,4.00
2022-09-07T11:38:34.248Z,3.60
2022-09-07T11:41:16.023Z,3.80
2022-09-07T11:43:48.630Z,3.53
2022-09-07T11:46:34.562Z,3.05
2022-09-07T11:49:04.447Z,3.50
2022-09-07T11:51:46.737Z,3.50
2022-09-07T11:54:19.724Z,3.15
2022-09-07T11:56:54.884Z,2.83
2022-09-07T11:59:48.906Z,3.13
2022-09-07T12:02:58.884Z,3.42
2022-09-07T12:05:41.584Z,3.30
2022-09-07T12:08:33.919Z,3.17
2022-09-07T12:11:24.761Z,3.80
2022-09-07T12:14:19.339Z,2.88
2022-09-07T12:16:49.036Z,3.20
2022-09-07T12:19:22.085Z,3.27
2022-09-07T12:21:57.680Z,3.90
2022-09-07T12:24:45.107Z,2.80
2022-09-07T12:27:31.793Z,2.70
2022-09-07T12:29:58.494Z,2.80
2022-09-07T12:32:54.579Z,3.00
2022-09-07T12:35:37.129Z,3.22
2022-09-07T12:38:24.987Z,3.40
2022-09-07T12:41:01.338Z,2.80
2022-09-07T12:43:28.003Z,3.00
2022-09-07T12:45:56.600Z,2.60
2022-09-07T12:48:29.654Z,2.65
2022-09-07T12:54:42.462Z,2.40
2022-09-07T12:57:49.376Z,2.15
2022-09-07T13:00:24.239Z,2.50
2022-09-07T13:03:49.406Z,2.55
2022-09-07T13:06:14.683Z,2.42
2022-09-07T13:08:50.373Z,2.50
2022-09-07T13:11:20.233Z,2.28
2022-09-07T13:14:02.650Z,2.40
2022-09-07T13:19:50.966Z,2.08
2022-09-07T13:22:33.059Z,2.20
2022-09-07T13:25:03.277Z,2.00
2022-09-07T13:27:52.341Z,1.93
2022-09-07T13:30:46.816Z,1.95
2022-09-07T13:33:25.958Z,1.85
2022-09-07T13:36:09.234Z,2.10
2022-09-07T13:38:36.728Z,2.00
2022-09-07T13:41:35.849Z,1.80
2022-09-07T13:44:03.982Z,1.58
2022-09-07T13:47:04.733Z,1.70
2022-09-07T13:49:40.333Z,1.40
2022-09-07T13:52:18.393Z,1.70
2022-09-07T13:55:14.569Z,1.97
2022-09-07T13:58:07.654Z,1.60
2022-09-07T14:00:34.927Z,1.50
2022-09-07T14:03:07.294Z,1.85
2022-09-07T14:05:34.193Z,1.90
2022-09-07T14:08:00.976Z,2.00
2022-09-07T14:10:28.219Z,2.00
2022-09-07T14:13:12.320Z,1.42
2022-09-07T14:15:43.031Z,1.70
2022-09-07T14:18:19.861Z,1.85
2022-09-07T14:20:52.177Z,1.77
2022-09-07T14:23:30.761Z,1.70
2022-09-07T14:26:20.389Z,1.98
2022-09-07T14:28:50.667Z,2.05
2022-09-07T14:31:20.009Z,2.13
2022-09-07T14:33:58.166Z,1.33
2022-09-07T14:36:44.579Z,1.70
2022-09-07T14:39:17.017Z,1.50
2022-09-07T14:41:44.725Z,1.73
2022-09-07T14:44:38.953Z,8.48
2022-09-07T14:47:29.203Z,2.33
2022-09-07T14:49:59.738Z,2.10
2022-09-07T14:52:43.043Z,1.67
2022-09-07T14:55:34.655Z,2.17
2022-09-07T14:58:21.813Z,1.60
2022-09-07T15:04:02.279Z,1.88
2022-09-07T15:09:38.539Z,1.50
2022-09-07T15:12:36.441Z,1.83
2022-09-07T15:15:35.439Z,1.60
2022-09-07T15:18:08.713Z,1.80
2022-09-07T15:20:37.826Z,2.35
2022-09-07T15:23:13.543Z,1.88
2022-09-07T15:25:45.409Z,1.60
2022-09-07T15:34:11.785Z,1.33
2022-09-07T15:36:40.971Z,1.80
2022-09-07T15:39:14.568Z,1.58
2022-09-07T15:41:42.764Z,1.80
2022-09-07T15:44:09.589Z,1.88
2022-09-07T15:46:37.196Z,1.90
2022-09-07T15:49:04.720Z,2.00
2022-09-07T15:54:20.670Z,1.77
2022-09-07T15:59:35.151Z,2.20
2022-09-07T16:02:02.652Z,1.80
2022-09-07T16:04:29.899Z,1.60
2022-09-07T16:06:56.746Z,1.73
2022-09-07T16:09:23.711Z,1.50
2022-09-07T16:11:50.982Z,1.50
2022-09-07T16:14:18.472Z,1.67
2022-09-07T16:19:34.985Z,1.77
2022-09-07T16:22:03.218Z,1.67
2022-09-07T16:24:30.360Z,1.80
2022-09-07T16:26:57.146Z,1.67
2022-09-07T16:29:24.677Z,1.60
2022-09-07T16:34:39.935Z,1.50
2022-09-07T16:37:07.207Z,1.73
2022-09-07T16:39:34.343Z,1.95
2022-09-07T16:42:01.161Z,1.75
2022-09-07T16:44:27.886Z,2.00
2022-09-07T16:46:54.997Z,2.15
2022-09-07T16:49:22.039Z,1.90
2022-09-07T16:51:49.800Z,2.22
2022-09-07T16:54:17.396Z,2.08
2022-09-07T16:56:44.264Z,1.90
2022-09-07T16:59:16.016Z,2.65
2022-09-07T17:01:42.985Z,1.90
2022-09-07T17:04:11.422Z,2.15
2022-09-07T17:06:39.871Z,2.47
2022-09-07T17:09:07.226Z,1.90
2022-09-07T17:11:35.833Z,2.05
2022-09-07T17:14:05.394Z,1.85
2022-09-07T17:16:37.477Z,1.95
2022-09-07T17:21:53.561Z,1.87
2022-09-07T17:24:20.353Z,2.50
2022-09-07T17:26:47.491Z,2.13
2022-09-07T17:29:14.516Z,1.80
2022-09-07T17:34:30.041Z,1.80
2022-09-07T17:36:57.110Z,1.73
2022-09-07T17:39:23.923Z,2.20
2022-09-07T17:41:54.487Z,1.63
2022-09-07T17:44:23.231Z,1.80
2022-09-07T17:46:50.539Z,2.10
2022-09-07T17:49:17.704Z,2.00
2022-09-07T17:51:45.571Z,1.60
2022-09-07T17:54:15.525Z,2.40
2022-09-07T17:56:43.168Z,1.80
2022-09-07T18:01:57.650Z,2.45
2022-09-07T18:04:24.633Z,2.28
2022-09-07T18:06:51.652Z,2.70
2022-09-07T18:09:19.651Z,2.95
2022-09-07T18:11:48.601Z,3.20
2022-09-07T18:14:17.139Z,2.60
2022-09-07T18:16:45.606Z,2.50
2022-09-07T18:19:13.086Z,3.65
2022-09-07T18:21:41.933Z,3.05
2022-09-07T18:24:16.613Z,3.17
2022-09-07T18:26:44.763Z,3.08
2022-09-07T18:29:28.175Z,2.50
2022-09-07T18:31:56.565Z,2.70
2022-09-07T18:34:23.523Z,3.03
2022-09-07T18:36:50.414Z,2.77
2022-09-07T18:39:17.529Z,3.67
2022-09-07T18:41:44.256Z,3.35
2022-09-07T18:46:57.933Z,3.33
2022-09-07T18:49:25.076Z,3.03
2022-09-07T18:54:41.240Z,2.70
2022-09-07T18:57:08.719Z,4.20
2022-09-07T18:59:35.637Z,4.00
2022-09-07T19:02:04.907Z,4.03
2022-09-07T19:07:27.346Z,4.32
2022-09-07T19:09:55.818Z,8.98
2022-09-07T19:12:24.183Z,5.50
2022-09-07T19:14:51.113Z,3.77
2022-09-07T19:17:18.010Z,7.53
2022-09-07T19:19:44.995Z,13.07
2022-09-07T19:22:11.832Z,10.13
2022-09-07T19:24:38.575Z,3.28
2022-09-07T19:27:07.089Z,2.97
2022-09-07T19:29:33.861Z,2.92
2022-09-07T19:32:11.891Z,2.88
2022-09-07T19:34:43.361Z,2.95
2022-09-07T19:37:12.487Z,2.80
2022-09-07T19:39:39.716Z,3.10
2022-09-07T19:42:07.193Z,2.70
2022-09-07T19:44:34.178Z,2.85
2022-09-07T19:47:01.973Z,4.43
2022-09-07T19:49:28.913Z,3.05
2022-09-07T19:51:55.661Z,3.50
2022-09-07T19:54:22.513Z,3.33
2022-09-07T19:56:49.278Z,3.35
2022-09-07T19:59:17.994Z,2.80
2022-09-07T20:01:46.904Z,9.68
2022-09-07T20:04:20.398Z,7.30
2022-09-07T20:06:49.911Z,3.58
2022-09-07T20:09:19.907Z,3.47
2022-09-07T20:11:48.138Z,3.17
2022-09-07T20:14:19.045Z,3.50
2022-09-07T20:16:45.937Z,3.90
2022-09-07T20:19:14.859Z,4.10
2022-09-07T20:21:42.653Z,3.63
2022-09-07T20:24:12.174Z,2.90
2022-09-07T20:26:39.017Z,3.00
2022-09-07T20:29:26.152Z,3.17
2022-09-07T20:31:53.973Z,2.53
2022-09-07T20:34:21.365Z,2.45
2022-09-07T20:36:51.641Z,2.55
2022-09-07T20:39:19.375Z,2.88
2022-09-07T20:41:46.815Z,2.60
2022-09-07T20:44:14.371Z,2.60
2022-09-07T20:46:41.358Z,1.80
2022-09-07T20:49:09.482Z,2.47
2022-09-07T20:51:36.226Z,2.25
2022-09-07T20:54:03.021Z,2.27
2022-09-07T20:56:30.267Z,2.45
2022-09-07T20:59:00.268Z,2.42
2022-09-07T21:01:28.635Z,2.38
2022-09-07T21:03:57.993Z,2.65
2022-09-07T21:06:26.131Z,2.80
2022-09-07T21:08:53.286Z,2.60
2022-09-07T21:11:20.495Z,2.47
2022-09-07T21:13:47.793Z,2.50
2022-09-07T21:16:16.207Z,2.53
2022-09-07T21:18:44.123Z,2.50
2022-09-07T21:21:20.416Z,2.42
2022-09-07T21:23:48.070Z,2.70
2022-09-07T21:26:19.469Z,2.50
2022-09-07T21:28:46.613Z,2.83
2022-09-07T21:31:13.361Z,2.60
2022-09-07T21:33:40.276Z,2.40
2022-09-07T21:36:12.368Z,2.40
2022-09-07T21:38:40.908Z,2.33
2022-09-07T21:41:09.536Z,2.35
2022-09-07T21:43:36.961Z,2.40
2022-09-07T21:46:18.213Z,2.83
2022-09-07T21:48:45.954Z,2.70
2022-09-07T21:51:13.791Z,2.65
2022-09-07T21:53:41.061Z,2.22
2022-09-07T21:56:11.099Z,2.37
2022-09-07T21:58:38.519Z,2.42
2022-09-07T22:01:11.608Z,2.10
2022-09-07T22:03:40.301Z,2.20
2022-09-07T22:06:08.331Z,2.30
2022-09-07T22:08:37.000Z,2.00
2022-09-07T22:11:12.590Z,2.28
2022-09-07T22:13:39.778Z,2.53
2022-09-07T22:16:07.319Z,6.13
2022-09-07T22:18:35.781Z,2.60
2022-09-07T22:21:02.936Z,2.60
2022-09-07T22:23:31.307Z,2.65
2022-09-07T22:25:58.052Z,2.80
2022-09-07T22:28:25.069Z,3.22
2022-09-07T22:30:54.412Z,2.15
2022-09-07T22:33:21.557Z,2.15
2022-09-07T22:35:48.824Z,2.30
2022-09-07T22:38:15.973Z,2.33
2022-09-07T22:40:43.099Z,2.53
2022-09-07T22:43:09.808Z,2.45
2022-09-07T22:45:36.700Z,2.37
2022-09-07T22:48:03.989Z,3.00
2022-09-07T22:50:32.136Z,2.20
2022-09-07T22:52:58.965Z,2.53
2022-09-07T22:55:26.129Z,2.83
2022-09-07T22:57:53.240Z,3.20
2022-09-07T23:00:20.384Z,3.10
2022-09-07T23:02:48.020Z,2.88
2022-09-07T23:05:15.460Z,2.50
2022-09-07T23:07:42.197Z,2.80
2022-09-07T23:10:09.211Z,3.23
2022-09-07T23:12:36.413Z,2.40
2022-09-07T23:15:03.553Z,2.78
2022-09-07T23:17:31.573Z,2.65
2022-09-07T23:19:58.312Z,2.78
2022-09-07T23:22:25.280Z,3.00
2022-09-07T23:24:51.992Z,3.05
2022-09-07T23:27:19.141Z,2.40
2022-09-07T23:29:46.442Z,2.70
2022-09-07T23:32:13.231Z,2.53
2022-09-07T23:34:39.934Z,3.70
2022-09-07T23:37:07.047Z,2.92
2022-09-07T23:39:34.209Z,2.47
2022-09-07T23:42:01.383Z,2.70
2022-09-07T23:44:29.404Z,2.38
2022-09-07T23:46:56.192Z,2.50
2022-09-07T23:49:23.333Z,2.40
2022-09-07T23:51:50.461Z,2.70
2022-09-07T23:54:17.607Z,3.08
2022-09-07T23:56:44.384Z,3.05
2022-09-07T23:59:11.218Z,2.67
